Time;durP1;ratioP1;P1;durP2;ratioP2;P2;SDS_P1;SDS_P2;PMS_P1;PMS_P2;Temp;Humidity;BMP_temperature;BMP_pressure;BME280_temperature;BME280_humidity;BME280_pressure;Samples;Min_cycle;Max_cycle;Signal;HPM_P1;HPM_P2
2022/11/05 00:16:42;;;;;;;;;12.00;12.00;;;;;9.62;100.00;101166.56;6226345;22;44890;-82
2022/11/05 00:16:52;;;;;;;;;11.33;11.00;;;;;9.64;100.00;101153.34;6225493;22;45501;-83
2022/11/05 00:19:17;;;;;;;;;11.00;10.00;;;;;9.63;100.00;101154.19;6199376;22;44812;-83
2022/11/05 00:27:17;;;;;;;;;12.00;10.00;;;;;9.77;100.00;101158.94;6227795;22;45344;-82
2022/11/05 00:29:43;;;;;;;;;14.00;11.67;;;;;9.86;100.00;101173.34;6200882;22;45372;-82
2022/11/05 00:32:08;;;;;;;;;15.33;11.00;;;;;9.85;100.00;101156.47;6225164;22;45453;-82
2022/11/05 00:34:34;;;;;;;;;13.67;12.00;;;;;9.92;100.00;101170.81;6227291;22;45383;-83
2022/11/05 00:37:00;;;;;;;;;11.67;11.67;;;;;9.95;100.00;101168.22;6224728;22;45469;-83
2022/11/05 00:39:28;;;;;;;;;14.00;10.33;;;;;9.86;100.00;101157.41;6198602;22;45397;-83
2022/11/05 00:45:16;;;;;;;;;13.33;12.67;;;;;9.82;100.00;101170.59;6225309;22;45306;-83
2022/11/05 00:50:26;;;;;;;;;10.67;10.67;;;;;9.80;100.00;101179.41;6226738;22;45358;-82
2022/11/05 00:52:54;;;;;;;;;11.00;11.00;;;;;9.71;100.00;101168.53;6224662;22;45640;-82
2022/11/05 00:55:27;;;;;;;;;8.67;8.67;;;;;9.69;100.00;101173.81;6227020;22;45158;-82
2022/11/05 01:01:14;;;;;;;;;9.67;9.00;;;;;9.57;100.00;101173.50;6227231;22;44736;-81
2022/11/05 01:03:40;;;;;;;;;14.67;14.67;;;;;9.55;100.00;101175.22;6200137;22;46685;-81
2022/11/05 01:06:14;;;;;;;;;11.33;11.33;;;;;9.48;100.00;101162.66;6225113;22;45386;-82
2022/11/05 01:08:41;;;;;;;;;14.00;11.00;;;;;9.47;100.00;101169.72;6227526;22;45306;-82
2022/11/05 01:11:31;;;;;;;;;14.67;10.67;;;;;9.43;100.00;101161.63;6225305;22;45528;-82
2022/11/05 01:13:59;;;;;;;;;13.00;13.00;;;;;9.39;100.00;101174.84;6225625;22;46116;-82
2022/11/05 01:16:24;;;;;;;;;15.00;13.00;;;;;9.35;100.00;101175.63;6226102;22;45421;-82
2022/11/05 01:18:50;;;;;;;;;14.67;13.33;;;;;9.27;100.00;101161.25;6224710;22;45380;-82
2022/11/05 01:21:58;;;;;;;;;14.33;10.67;;;;;9.26;100.00;101162.09;6174160;22;45614;-82
2022/11/05 01:24:26;;;;;;;;;13.00;11.33;;;;;9.13;100.00;101155.59;6198256;22;46332;-83
2022/11/05 01:26:51;;;;;;;;;12.67;11.00;;;;;9.15;100.00;101161.84;6225577;22;45268;-83
2022/11/05 01:29:17;;;;;;;;;12.33;12.33;;;;;9.08;100.00;101158.97;6225467;22;44849;-82
2022/11/05 01:31:42;;;;;;;;;10.67;9.67;;;;;9.10;100.00;101183.78;6219453;22;45340;-82
2022/11/05 01:34:08;;;;;;;;;14.67;10.00;;;;;9.08;100.00;101180.19;6195588;22;45694;-82
2022/11/05 01:36:33;;;;;;;;;10.33;10.33;;;;;9.03;100.00;101182.72;6195260;23;45318;-82
2022/11/05 01:39:00;;;;;;;;;14.67;8.67;;;;;9.00;100.00;101172.91;6218990;22;45388;-82
2022/11/05 01:41:26;;;;;;;;;13.00;12.00;;;;;9.05;100.00;101185.41;6195030;23;45361;-82
2022/11/05 01:43:58;;;;;;;;;11.00;11.00;;;;;9.05;100.00;101190.72;6195591;22;45464;-82
2022/11/05 01:46:40;;;;;;;;;9.67;9.67;;;;;9.02;100.00;101186.22;6194725;23;45463;-83
2022/11/05 01:49:32;;;;;;;;;13.33;12.67;;;;;9.07;100.00;101189.00;6195554;22;45266;-82
2022/11/05 01:52:02;;;;;;;;;12.33;11.67;;;;;9.08;100.00;101185.50;6193436;22;45299;-81
2022/11/05 01:54:32;;;;;;;;;12.67;10.67;;;;;9.08;100.00;101190.81;6192250;23;46704;-82
2022/11/05 01:57:06;;;;;;;;;10.67;9.67;;;;;9.02;100.00;101181.81;6194951;22;45460;-83
2022/11/05 01:59:37;;;;;;;;;10.00;10.00;;;;;9.03;100.00;101190.69;6194972;22;45367;-82
2022/11/05 02:02:09;;;;;;;;;13.67;11.67;;;;;9.06;100.00;101187.22;6193105;22;44831;-82
2022/11/05 02:04:44;;;;;;;;;14.00;11.33;;;;;9.04;100.00;101184.50;6193748;22;45257;-82
2022/11/05 02:07:10;;;;;;;;;12.33;10.67;;;;;9.04;100.00;101179.22;6219279;22;44721;-82
2022/11/05 02:12:58;;;;;;;;;11.67;11.67;;;;;8.97;100.00;101172.84;6195424;23;45338;-81
2022/11/05 02:16:00;;;;;;;;;15.67;13.33;;;;;8.92;100.00;101157.66;6196349;22;45273;-82
2022/11/05 02:18:43;;;;;;;;;16.33;13.00;;;;;8.96;100.00;101179.00;6195288;22;45429;-82
2022/11/05 02:21:45;;;;;;;;;1.00;1.00;;;;;8.93;100.00;101176.28;6195878;22;45768;-83
2022/11/05 02:24:35;;;;;;;;;11.00;10.00;;;;;8.90;100.00;101181.47;6196027;22;45360;-82
2022/11/05 02:27:06;;;;;;;;;10.00;9.67;;;;;8.87;100.00;101185.81;6196743;23;45358;-82
2022/11/05 02:29:50;;;;;;;;;14.00;13.67;;;;;8.86;100.00;101184.00;6192507;22;44792;-82
2022/11/05 02:32:16;;;;;;;;;6.67;5.67;;;;;8.89;100.00;101190.31;6194241;23;45257;-82
2022/11/05 02:35:00;;;;;;;;;10.67;9.67;;;;;8.88;100.00;101191.16;6196962;23;45315;-81
2022/11/05 02:37:40;;;;;;;;;9.00;9.00;;;;;8.94;100.00;101203.69;6198167;23;45331;-82
2022/11/05 02:40:16;;;;;;;;;10.00;8.33;;;;;8.96;100.00;101200.22;6197291;23;44724;-82
2022/11/05 02:42:57;;;;;;;;;13.00;10.00;;;;;8.99;100.00;101189.69;6194141;23;45303;-82
2022/11/05 02:45:44;;;;;;;;;8.67;8.67;;;;;8.98;100.00;101187.88;6197646;23;45398;-82
2022/11/05 02:48:24;;;;;;;;;11.33;9.33;;;;;8.93;100.00;101176.28;6195707;23;45369;-83
2022/11/05 02:51:24;;;;;;;;;9.00;9.00;;;;;9.00;100.00;101177.31;6168012;23;45116;-83
2022/11/05 02:54:08;;;;;;;;;14.00;11.67;;;;;9.02;100.00;101191.53;6101625;23;45436;-83
2022/11/05 02:56:42;;;;;;;;;10.67;10.67;;;;;9.06;100.00;101180.16;6102537;23;45727;-83
2022/11/05 02:59:08;;;;;;;;;13.00;10.33;;;;;9.07;100.00;101176.66;6102439;23;46955;-83
2022/11/05 03:01:36;;;;;;;;;11.67;9.33;;;;;9.14;100.00;101172.41;6102572;23;45478;-83
2022/11/05 03:04:05;;;;;;;;;13.00;10.00;;;;;9.16;100.00;101173.34;6102374;23;45509;-82
2022/11/05 03:06:52;;;;;;;;;12.67;11.33;;;;;9.19;100.00;101168.13;6105006;23;45369;-82
2022/11/05 03:09:42;;;;;;;;;4.33;4.33;;;;;9.19;100.00;101162.81;6077088;23;47354;-82
2022/11/05 03:12:23;;;;;;;;;10.67;8.67;;;;;9.19;100.00;101166.38;6078782;23;45403;-82
2022/11/05 03:15:20;;;;;;;;;10.67;9.67;;;;;9.18;100.00;101163.66;6103986;23;45756;-81
2022/11/05 03:18:24;;;;;;;;;12.00;8.00;;;;;9.17;100.00;101172.47;6102725;23;45503;-82
2022/11/05 03:21:16;;;;;;;;;5.33;5.33;;;;;9.17;100.00;101169.81;6060287;23;46908;-82
2022/11/05 03:23:47;;;;;;;;;6.67;6.67;;;;;9.23;100.00;101179.69;6088186;23;45324;-81
2022/11/05 03:26:19;;;;;;;;;10.67;9.00;;;;;9.24;100.00;101166.47;6078990;23;45406;-81
2022/11/05 03:28:50;;;;;;;;;8.67;8.67;;;;;9.27;100.00;101157.69;6122166;23;45400;-82
2022/11/05 03:31:18;;;;;;;;;8.00;7.00;;;;;9.27;100.00;101153.31;6199277;22;45584;-81
2022/11/05 03:33:45;;;;;;;;;6.33;3.67;;;;;9.18;100.00;101134.47;6225138;22;45159;-83
2022/11/05 03:36:18;;;;;;;;;6.00;6.00;;;;;9.19;100.00;101144.25;6226797;22;45478;-82
2022/11/05 03:38:50;;;;;;;;;7.67;5.33;;;;;9.20;100.00;101148.69;6200106;22;45545;-82
2022/11/05 03:41:16;;;;;;;;;8.33;7.00;;;;;9.24;100.00;101161.16;6198497;22;48168;-82
2022/11/05 03:43:51;;;;;;;;;8.00;5.33;;;;;9.28;100.00;101162.16;6226371;22;45236;-82
2022/11/05 03:46:46;;;;;;;;;7.00;7.00;;;;;9.30;100.00;101150.72;6225578;22;45404;-81
2022/11/05 03:49:20;;;;;;;;;9.33;9.33;;;;;9.36;100.00;101145.56;6198157;22;45243;-82
2022/11/05 03:52:00;;;;;;;;;7.00;7.00;;;;;9.31;100.00;101144.56;6226631;22;45319;-83
2022/11/05 03:54:28;;;;;;;;;10.00;8.67;;;;;9.41;100.00;101156.28;6224698;22;45244;-81
2022/11/05 03:57:22;;;;;;;;;8.33;7.67;;;;;9.42;100.00;101150.13;6222749;22;45336;-82
2022/11/05 03:59:49;;;;;;;;;7.33;7.33;;;;;9.46;100.00;101159.06;6223322;22;45322;-82
2022/11/05 04:02:22;;;;;;;;;5.67;5.67;;;;;9.47;100.00;101159.09;6222252;22;47230;-82
2022/11/05 04:04:49;;;;;;;;;8.33;8.33;;;;;9.45;100.00;101149.31;6222610;22;45345;-81
2022/11/05 04:15:28;;;;;;;;;7.00;7.00;;;;;9.47;100.00;101148.47;6224096;22;45448;-82
2022/11/05 04:17:57;;;;;;;;;6.33;6.33;;;;;9.49;100.00;101161.78;6224798;22;44884;-82
2022/11/05 04:25:57;;;;;;;;;3.00;3.00;;;;;9.63;100.00;101172.75;6225245;22;45655;-82
2022/11/05 04:30:17;;;;;;;;;4.00;4.00;;;;;9.65;100.00;101163.97;6225572;22;44729;-82
2022/11/05 04:31:08;;;;;;;;;7.00;6.67;;;;;9.68;100.00;101169.38;6223967;22;45391;-81
2022/11/05 04:33:36;;;;;;;;;4.33;4.33;;;;;9.70;100.00;101170.31;6195924;23;45402;-81
2022/11/05 04:36:02;;;;;;;;;8.00;6.33;;;;;9.74;100.00;101168.63;6194531;23;45311;-82
2022/11/05 04:38:27;;;;;;;;;5.67;5.00;;;;;9.71;100.00;101164.13;6193077;23;45503;-83
2022/11/05 04:41:11;;;;;;;;;9.00;7.33;;;;;9.78;100.00;101175.81;6197461;23;44832;-82
2022/11/05 04:43:37;;;;;;;;;9.00;9.00;;;;;9.78;100.00;101170.50;6196270;23;45345;-83
2022/11/05 04:46:02;;;;;;;;;7.33;5.00;;;;;9.73;100.00;101165.03;6195718;23;45329;-82
2022/11/05 04:48:28;;;;;;;;;7.33;4.00;;;;;9.69;100.00;101157.88;6170383;23;45277;-82
2022/11/05 04:50:53;;;;;;;;;6.67;6.67;;;;;9.66;100.00;101155.16;6197093;23;45483;-82
2022/11/05 04:53:19;;;;;;;;;4.00;4.00;;;;;9.70;100.00;101169.41;6195547;23;45881;-82
2022/11/05 04:55:44;;;;;;;;;5.00;5.00;;;;;9.62;100.00;101158.59;6167802;23;45505;-82
2022/11/05 04:58:09;;;;;;;;;7.67;5.00;;;;;9.62;100.00;101163.91;6191685;23;45897;-82
2022/11/05 05:00:35;;;;;;;;;4.67;4.67;;;;;9.60;100.00;101174.47;6168548;23;45821;-82
2022/11/05 05:03:00;;;;;;;;;6.33;5.67;;;;;9.56;100.00;101183.22;6194874;23;45310;-82
2022/11/05 05:05:25;;;;;;;;;7.67;7.67;;;;;9.56;100.00;101182.34;6167343;23;45454;-83
2022/11/05 05:08:00;;;;;;;;;5.67;4.00;;;;;9.53;100.00;101175.22;6193504;23;45388;-83
2022/11/05 05:10:25;;;;;;;;;5.67;5.67;;;;;9.59;100.00;101196.59;6192240;23;45482;-83
2022/11/05 05:12:54;;;;;;;;;3.00;3.00;;;;;9.58;100.00;101191.25;6193970;23;46292;-82
2022/11/05 05:15:19;;;;;;;;;7.33;6.00;;;;;9.61;100.00;101197.53;6168071;23;45101;-81
2022/11/05 05:17:50;;;;;;;;;5.00;3.00;;;;;9.60;100.00;101200.16;6195514;23;45357;-81
2022/11/05 05:23:00;;;;;;;;;5.00;3.00;;;;;9.55;100.00;101212.41;6195056;23;45342;-82
2022/11/05 05:25:25;;;;;;;;;7.00;7.00;;;;;9.49;100.00;101198.97;6193930;23;45362;-82
2022/11/05 05:27:51;;;;;;;;;7.33;5.00;;;;;9.45;100.00;101197.97;6167691;23;45287;-82
2022/11/05 05:30:16;;;;;;;;;4.00;4.00;;;;;9.41;100.00;101197.03;6195263;23;45288;-82
2022/11/05 05:32:42;;;;;;;;;5.00;5.00;;;;;9.34;100.00;101183.53;6208342;22;46962;-82
2022/11/05 05:35:09;;;;;;;;;7.67;6.33;;;;;9.36;100.00;101188.03;6195653;22;45313;-81
2022/11/05 05:37:34;;;;;;;;;4.00;4.00;;;;;9.35;100.00;101194.22;6195359;22;45342;-81
2022/11/05 05:40:00;;;;;;;;;8.00;4.67;;;;;9.32;100.00;101199.44;6196179;22;45278;-81
2022/11/05 05:42:25;;;;;;;;;7.33;7.00;;;;;9.31;100.00;101194.06;6219899;22;46467;-82
2022/11/05 05:44:51;;;;;;;;;5.67;4.00;;;;;9.30;100.00;101197.59;6194570;22;45312;-82
2022/11/05 05:47:20;;;;;;;;;7.00;7.00;;;;;9.31;100.00;101212.66;6194727;22;45192;-82
2022/11/05 05:49:46;;;;;;;;;4.00;4.00;;;;;9.26;100.00;101207.22;6221777;22;45266;-81
2022/11/05 05:52:11;;;;;;;;;3.67;3.67;;;;;9.21;100.00;101199.16;6197386;22;46715;-82
2022/11/05 05:54:36;;;;;;;;;4.00;4.00;;;;;9.29;100.00;101202.00;6196912;22;45427;-83
2022/11/05 05:57:02;;;;;;;;;4.67;4.67;;;;;9.27;100.00;101195.78;6197955;22;44751;-82
2022/11/05 05:59:35;;;;;;;;;8.33;7.33;;;;;9.25;100.00;101197.47;6197231;22;45299;-82
2022/11/05 06:02:01;;;;;;;;;3.67;3.67;;;;;9.22;100.00;101189.41;6197959;22;46705;-82
2022/11/05 06:04:26;;;;;;;;;7.33;4.00;;;;;9.25;100.00;101204.53;6198194;22;45397;-83
2022/11/05 06:06:51;;;;;;;;;7.67;7.67;;;;;9.25;100.00;101204.53;6197847;22;45517;-82
2022/11/05 06:09:17;;;;;;;;;6.67;6.00;;;;;9.26;100.00;101203.69;6195093;22;45405;-81
2022/11/05 06:11:43;;;;;;;;;4.33;4.33;;;;;9.29;100.00;101212.63;6196655;23;46566;-82
2022/11/05 06:14:10;;;;;;;;;10.00;4.67;;;;;9.22;100.00;101197.38;6195270;23;44750;-81
2022/11/05 06:16:37;;;;;;;;;5.67;3.00;;;;;9.27;100.00;101208.13;6193759;22;45270;-82
2022/11/05 06:19:05;;;;;;;;;5.67;5.67;;;;;9.30;100.00;101219.72;6219459;22;45495;-83
2022/11/05 06:21:30;;;;;;;;;6.67;6.67;;;;;9.23;100.00;101209.81;6194797;23;47293;-82
2022/11/05 06:23:55;;;;;;;;;4.00;4.00;;;;;9.26;100.00;101217.84;6220350;22;45287;-82
2022/11/05 06:26:21;;;;;;;;;6.00;5.00;;;;;9.32;100.00;101223.31;6196924;22;45291;-81
2022/11/05 06:28:46;;;;;;;;;5.33;5.33;;;;;9.31;100.00;101215.31;6197501;22;45699;-81
2022/11/05 06:31:13;;;;;;;;;5.67;5.00;;;;;9.34;100.00;101226.91;6197566;23;45629;-82
2022/11/05 06:33:39;;;;;;;;;4.67;4.67;;;;;9.31;100.00;101226.84;6194070;23;44809;-82
2022/11/05 06:36:13;;;;;;;;;6.33;6.33;;;;;9.33;100.00;101225.13;6169371;23;45328;-82
2022/11/05 06:38:38;;;;;;;;;4.67;4.00;;;;;9.31;100.00;101216.22;6197841;23;45117;-82
2022/11/05 06:41:05;;;;;;;;;4.00;4.00;;;;;9.43;100.00;101225.34;6168957;23;46405;-82
2022/11/05 06:43:31;;;;;;;;;8.00;8.00;;;;;9.39;100.00;101219.06;6195440;23;45316;-82
2022/11/05 06:46:01;;;;;;;;;4.67;4.00;;;;;9.43;100.00;101225.34;6196023;23;44735;-82
2022/11/05 06:48:30;;;;;;;;;5.33;3.00;;;;;9.44;100.00;101237.78;6170405;23;45416;-82
2022/11/05 06:50:56;;;;;;;;;10.67;5.00;;;;;9.47;100.00;101243.16;6168551;23;46713;-83
2022/11/05 06:53:22;;;;;;;;;5.00;4.00;;;;;9.54;100.00;101232.75;6196435;23;45221;-83
2022/11/05 06:55:50;;;;;;;;;7.00;4.33;;;;;9.57;100.00;101223.94;6169366;23;44745;-83
2022/11/05 06:58:15;;;;;;;;;7.00;5.33;;;;;9.52;100.00;101213.22;6168735;23;45465;-82
2022/11/05 07:00:41;;;;;;;;;9.67;7.00;;;;;9.67;100.00;101233.94;6193886;23;46653;-82
2022/11/05 07:03:09;;;;;;;;;4.00;4.00;;;;;9.74;100.00;101250.97;6168481;23;44816;-82
2022/11/05 07:05:37;;;;;;;;;7.00;7.00;;;;;9.72;100.00;101234.97;6192877;23;45442;-83
2022/11/05 07:08:06;;;;;;;;;5.33;4.00;;;;;9.77;100.00;101249.25;6192704;23;45762;-82
2022/11/05 07:10:31;;;;;;;;;4.33;4.33;;;;;9.80;100.00;101229.88;6192596;23;47031;-82
2022/11/05 07:12:57;;;;;;;;;7.33;4.67;;;;;9.89;100.00;101247.78;6194177;23;45422;-81
2022/11/05 07:15:22;;;;;;;;;5.00;5.00;;;;;9.88;100.00;101233.63;6195448;23;45426;-82
2022/11/05 07:17:48;;;;;;;;;12.00;9.67;;;;;9.86;100.00;101231.78;6195832;23;45351;-82
2022/11/05 07:20:14;;;;;;;;;4.33;4.33;;;;;9.90;100.00;101234.53;6192802;23;46815;-82
2022/11/05 07:22:40;;;;;;;;;5.00;5.00;;;;;9.94;100.00;101230.22;6144508;23;45383;-82
2022/11/05 07:25:06;;;;;;;;;8.00;4.67;;;;;9.97;100.00;101230.28;6196255;23;45371;-82
2022/11/05 07:27:40;;;;;;;;;8.00;7.00;;;;;10.02;100.00;101231.28;6169164;23;45253;-82
2022/11/05 07:30:08;;;;;;;;;9.00;7.33;;;;;10.05;100.00;101241.09;6194748;23;45404;-82
2022/11/05 07:32:40;;;;;;;;;9.00;5.33;;;;;10.11;100.00;101254.53;6175628;23;46091;-82
2022/11/05 07:35:08;;;;;;;;;7.00;6.33;;;;;10.09;100.00;101246.50;6192641;22;45346;-82
2022/11/05 07:37:43;;;;;;;;;7.67;7.67;;;;;10.22;100.00;101255.69;6193584;23;45425;-82
2022/11/05 07:40:10;;;;;;;;;8.00;5.67;;;;;10.25;100.00;101262.84;6191832;22;46680;-82
2022/11/05 07:42:36;;;;;;;;;7.00;7.00;;;;;10.24;100.00;101256.63;6192818;22;45462;-82
2022/11/05 07:45:01;;;;;;;;;5.00;5.00;;;;;10.29;100.00;101248.75;6193772;22;45318;-82
2022/11/05 07:47:27;;;;;;;;;9.00;6.33;;;;;10.39;100.00;101250.78;6219506;22;45691;-82
2022/11/05 07:49:52;;;;;;;;;4.33;4.33;;;;;10.48;100.00;101253.66;6196067;22;46202;-82
2022/11/05 07:52:17;;;;;;;;;8.00;7.67;;;;;10.53;100.00;101261.75;6194300;22;45294;-82
2022/11/05 07:54:43;;;;;;;;;7.67;7.67;;;;;10.54;100.00;101245.84;6195291;22;44817;-83
2022/11/05 07:57:09;;;;;;;;;4.00;4.00;;;;;10.63;100.00;101258.44;6196044;22;45290;-82
2022/11/05 07:59:34;;;;;;;;;8.67;7.00;;;;;10.71;100.00;101254.16;6194586;22;45491;-82
2022/11/05 08:01:59;;;;;;;;;3.33;3.00;;;;;10.82;100.00;101257.94;6219241;22;45242;-81
2022/11/05 08:04:25;;;;;;;;;6.00;4.00;;;;;10.84;100.00;101254.44;6193549;22;44914;-83
2022/11/05 08:06:53;;;;;;;;;5.00;4.67;;;;;10.89;100.00;101264.31;6219067;22;45494;-82
2022/11/05 08:09:19;;;;;;;;;5.67;4.67;;;;;10.96;100.00;101252.03;6219845;22;48284;-81
2022/11/05 08:11:47;;;;;;;;;5.67;5.00;;;;;11.07;100.00;101263.81;6197040;22;45383;-81
2022/11/05 08:14:16;;;;;;;;;9.00;9.00;;;;;11.14;100.00;101270.13;6194022;22;44840;-82
2022/11/05 08:16:41;;;;;;;;;7.67;7.00;;;;;11.15;100.00;101258.59;6193719;22;45470;-81
2022/11/05 08:19:07;;;;;;;;;9.00;7.33;;;;;11.30;100.00;101266.91;6218072;22;47998;-82
2022/11/05 08:21:32;;;;;;;;;7.00;7.00;;;;;11.34;100.00;101260.78;6195395;22;45323;-82
2022/11/05 08:23:57;;;;;;;;;5.00;5.00;;;;;11.39;100.00;101261.78;6195302;22;45334;-82
2022/11/05 08:26:23;;;;;;;;;4.00;2.67;;;;;11.47;100.00;101269.00;6195570;22;45550;-82
2022/11/05 08:28:48;;;;;;;;;4.67;4.00;;;;;11.50;100.00;101263.75;6217493;22;46676;-81
2022/11/05 08:31:16;;;;;;;;;3.00;3.00;;;;;11.53;100.00;101258.44;6195407;22;45693;-82
2022/11/05 08:33:45;;;;;;;;;3.67;3.67;;;;;11.60;100.00;101261.25;6217668;22;45592;-82
2022/11/05 08:36:13;;;;;;;;;4.67;4.00;;;;;11.61;100.00;101254.16;6218906;22;45282;-83
2022/11/05 08:38:39;;;;;;;;;5.00;3.33;;;;;11.68;100.00;101253.41;6195173;22;45818;-82
2022/11/05 08:41:05;;;;;;;;;4.00;3.00;;;;;11.84;100.00;101267.03;6218108;22;45435;-82
2022/11/05 08:43:30;;;;;;;;;6.00;6.00;;;;;11.97;100.00;101264.59;6195229;22;45321;-83
2022/11/05 08:46:00;;;;;;;;;3.00;3.00;;;;;12.14;100.00;101271.97;6195753;23;45458;-83
2022/11/05 08:48:25;;;;;;;;;4.00;4.00;;;;;12.26;100.00;101266.84;6193057;22;46934;-82
2022/11/05 08:50:51;;;;;;;;;6.33;4.67;;;;;12.43;100.00;101264.44;6194448;22;45424;-82
2022/11/05 08:53:16;;;;;;;;;4.33;3.00;;;;;12.49;100.00;101260.97;6194323;22;45333;-82
2022/11/05 08:55:45;;;;;;;;;4.67;4.67;;;;;12.60;100.00;101286.94;6194155;23;44682;-82
2022/11/05 08:58:15;;;;;;;;;4.00;4.00;;;;;12.65;100.00;101292.34;6194430;22;45391;-81
2022/11/05 09:00:44;;;;;;;;;5.00;4.67;;;;;12.72;100.00;101285.28;6191915;22;45267;-82
2022/11/05 09:03:11;;;;;;;;;4.00;4.00;;;;;12.74;100.00;101283.53;6192545;22;45362;-82
2022/11/05 09:05:38;;;;;;;;;9.67;4.67;;;;;12.76;100.00;101289.81;6191113;22;44773;-82
2022/11/05 09:08:26;;;;;;;;;5.33;4.00;;;;;12.78;100.00;101288.06;6193017;22;45327;-82
2022/11/05 09:10:51;;;;;;;;;6.00;5.00;;;;;12.83;100.00;101289.03;6193961;22;45239;-82
2022/11/05 09:13:17;;;;;;;;;4.00;4.00;;;;;12.85;100.00;101287.28;6218150;22;45096;-81
2022/11/05 09:15:43;;;;;;;;;4.00;4.00;;;;;12.90;100.00;101280.19;6193893;22;45310;-82
2022/11/05 09:18:12;;;;;;;;;4.67;3.33;;;;;12.98;100.00;101283.88;6192583;22;45389;-81
2022/11/05 09:20:39;;;;;;;;;2.67;2.67;;;;;12.99;100.00;101275.00;6192933;23;45782;-82
2022/11/05 09:23:05;;;;;;;;;4.00;2.00;;;;;13.10;100.00;101276.91;6217395;22;45254;-83
2022/11/05 09:25:32;;;;;;;;;4.00;4.00;;;;;13.11;100.00;101265.31;6193851;22;45248;-82
2022/11/05 09:28:14;;;;;;;;;4.00;4.00;;;;;13.25;100.00;101263.75;6193731;22;46451;-82
2022/11/05 09:30:49;;;;;;;;;4.33;3.00;;;;;13.33;100.00;101269.19;6194633;22;45780;-83
2022/11/05 09:33:33;;;;;;;;;3.00;3.00;;;;;13.38;100.00;101264.81;6166449;23;45350;-83
2022/11/05 09:36:05;;;;;;;;;5.33;4.00;;;;;13.45;100.00;101263.97;6168322;23;45684;-82
2022/11/05 09:38:35;;;;;;;;;4.00;4.00;;;;;13.48;100.00;101258.66;6195186;23;45480;-82
2022/11/05 09:41:18;;;;;;;;;4.67;4.67;;;;;13.55;100.00;101267.63;6167917;23;45411;-82
2022/11/05 09:47:36;;;;;;;;;3.33;3.00;;;;;13.57;100.00;101276.56;6195837;23;45473;-83
2022/11/05 09:50:07;;;;;;;;;2.00;2.00;;;;;13.57;100.00;101264.13;6168960;23;46661;-81
2022/11/05 09:52:33;;;;;;;;;9.00;5.67;;;;;13.65;100.00;101271.31;6167814;23;45019;-81
2022/11/05 09:55:01;;;;;;;;;4.67;3.00;;;;;13.68;100.00;101266.91;6194787;23;45375;-83
2022/11/05 09:57:31;;;;;;;;;4.00;4.00;;;;;13.72;100.00;101267.81;6193404;23;45434;-82
2022/11/05 10:00:02;;;;;;;;;4.33;4.33;;;;;13.80;100.00;101272.34;6168116;23;46907;-82
2022/11/05 10:09:20;;;;;;;;;5.00;5.00;;;;;14.08;100.00;101267.25;6195659;23;45645;-82
2022/11/05 10:12:28;;;;;;;;;3.67;3.67;;;;;14.13;100.00;101260.16;6193608;23;46111;-82
2022/11/05 10:15:27;;;;;;;;;5.67;4.67;;;;;14.20;100.00;101261.13;6181088;23;45475;-82
2022/11/05 10:18:23;;;;;;;;;3.00;2.33;;;;;14.25;100.00;101253.09;6193092;23;45509;-82
2022/11/05 10:20:48;;;;;;;;;4.67;4.67;;;;;14.22;100.00;101254.00;6186271;23;45402;-82
2022/11/05 10:23:16;;;;;;;;;5.00;3.00;;;;;14.26;100.00;101252.22;6193690;23;47325;-82
2022/11/05 10:25:51;;;;;;;;;4.00;4.00;;;;;14.25;100.00;101264.69;6169568;23;45055;-83
2022/11/05 10:28:24;;;;;;;;;4.00;4.00;;;;;14.28;100.00;101264.72;6193002;23;45324;-82
2022/11/05 10:30:55;;;;;;;;;3.33;2.00;;;;;14.33;100.00;101270.09;6194706;23;45427;-81
2022/11/05 10:33:30;;;;;;;;;3.00;3.00;;;;;14.36;100.00;101264.75;6195160;23;44939;-81
2022/11/05 10:36:09;;;;;;;;;4.33;4.00;;;;;14.42;100.00;101267.47;6197553;23;45414;-82
2022/11/05 10:38:35;;;;;;;;;3.00;3.00;;;;;14.42;100.00;101272.84;6170355;23;45367;-81
2022/11/05 10:41:25;;;;;;;;;5.33;3.67;;;;;14.44;98.40;101271.09;6169778;23;45288;-82
2022/11/05 10:47:43;;;;;;;;;4.00;4.00;;;;;14.53;100.00;101273.81;6194474;23;45295;-82
2022/11/05 10:50:20;;;;;;;;;4.00;4.00;;;;;14.68;100.00;101273.03;6194912;23;45465;-82
2022/11/05 10:52:51;;;;;;;;;4.67;4.67;;;;;14.73;99.40;101271.28;6170929;23;45466;-82
2022/11/05 10:55:24;;;;;;;;;4.33;4.33;;;;;14.68;100.00;101272.13;6196629;23;45335;-83
2022/11/05 10:57:56;;;;;;;;;5.00;5.00;;;;;14.66;100.00;101271.25;6171639;23;44739;-82
2022/11/05 11:00:25;;;;;;;;;4.67;4.67;;;;;14.68;99.51;101270.34;6196649;23;45311;-82
2022/11/05 11:02:59;;;;;;;;;3.33;3.00;;;;;14.63;100.00;101255.19;6170963;23;45309;-82
2022/11/05 11:05:38;;;;;;;;;6.67;5.67;;;;;14.72;100.00;101272.16;6194222;23;46875;-82
2022/11/05 11:08:10;;;;;;;;;6.00;5.00;;;;;14.74;100.00;101261.47;6169298;23;45352;-82
2022/11/05 11:10:53;;;;;;;;;5.00;5.00;;;;;14.77;100.00;101269.53;6194139;23;45327;-82
2022/11/05 11:13:26;;;;;;;;;6.33;3.33;;;;;14.81;100.00;101271.34;6196723;23;45663;-82
2022/11/05 11:15:52;;;;;;;;;5.00;4.33;;;;;14.79;99.76;101252.56;6193612;23;47174;-82
2022/11/05 11:18:30;;;;;;;;;3.00;3.00;;;;;14.81;99.40;101257.94;6169552;23;45168;-82
2022/11/05 11:21:11;;;;;;;;;3.00;2.00;;;;;14.84;99.91;101268.66;6168575;23;45337;-83
2022/11/05 11:23:39;;;;;;;;;3.00;3.00;;;;;14.89;99.70;101261.56;6198315;23;45464;-82
2022/11/05 11:26:06;;;;;;;;;5.00;5.00;;;;;14.94;100.00;101250.84;6169292;23;47556;-83
2022/11/05 11:28:39;;;;;;;;;5.00;4.67;;;;;15.03;98.25;101249.97;6168248;23;45317;-83
2022/11/05 11:31:12;;;;;;;;;5.00;5.00;;;;;14.99;99.94;101250.00;6169279;23;45417;-82
2022/11/05 11:33:39;;;;;;;;;9.33;4.67;;;;;15.05;98.64;101250.88;6168411;23;45475;-83
2022/11/05 11:36:06;;;;;;;;;4.00;3.00;;;;;15.07;99.56;101247.34;6167579;23;47143;-82
2022/11/05 11:38:37;;;;;;;;;3.67;3.67;;;;;15.07;98.26;101238.38;6193406;23;45355;-82
2022/11/05 11:41:19;;;;;;;;;4.00;4.00;;;;;15.15;99.54;101234.00;6167636;23;45285;-83
2022/11/05 11:43:45;;;;;;;;;3.75;3.00;;;;;15.25;98.46;101230.44;6192719;23;45355;-82
2022/11/05 11:46:17;;;;;;;;;2.50;2.50;;;;;15.38;98.26;101231.34;6192486;23;47089;-83
2022/11/05 11:48:48;;;;;;;;;3.25;3.25;;;;;15.45;96.53;101227.81;6167578;23;45350;-81
2022/11/05 11:51:39;;;;;;;;;3.00;3.00;;;;;15.51;96.93;101232.25;6196018;23;44730;-81
2022/11/05 11:54:25;;;;;;;;;3.75;3.25;;;;;15.51;96.09;101229.56;6194330;23;45482;-82
2022/11/05 11:56:50;;;;;;;;;4.00;3.00;;;;;15.54;96.49;101237.63;6195056;23;47707;-82
2022/11/05 11:59:23;;;;;;;;;4.00;3.50;;;;;15.56;96.97;101223.34;6193539;23;45332;-82
2022/11/05 12:02:11;;;;;;;;;4.75;3.75;;;;;15.68;96.49;101229.63;6195979;23;44829;-82
2022/11/05 12:04:47;;;;;;;;;2.75;2.75;;;;;15.68;95.62;101225.13;6195064;23;45370;-82
2022/11/05 12:07:40;;;;;;;;;4.00;3.00;;;;;15.73;94.70;101220.69;6168354;23;47697;-82
2022/11/05 12:10:35;;;;;;;;;3.00;2.00;;;;;15.67;93.83;101217.97;6168976;23;44991;-82
2022/11/05 12:13:00;;;;;;;;;3.00;3.00;;;;;15.69;93.93;101216.19;6168703;23;45322;-82
2022/11/05 12:16:05;;;;;;;;;3.50;2.00;;;;;15.71;93.24;101221.56;6196523;23;45219;-82
2022/11/05 12:18:55;;;;;;;;;2.00;2.00;;;;;15.65;90.33;101217.06;6166925;23;47429;-82
2022/11/05 12:21:58;;;;;;;;;3.00;2.00;;;;;15.54;90.89;101210.84;6194092;23;45375;-82
2022/11/05 12:24:57;;;;;;;;;2.00;2.00;;;;;15.52;92.27;101201.91;6197415;23;44727;-82
2022/11/05 12:27:49;;;;;;;;;3.50;3.50;;;;;15.57;91.85;101202.78;6194556;23;45386;-81
2022/11/05 12:30:20;;;;;;;;;6.00;5.25;;;;;15.62;91.49;101198.31;6194744;23;46684;-82
2022/11/05 12:32:51;;;;;;;;;4.50;3.50;;;;;15.75;88.78;101199.25;6195171;23;45003;-82
2022/11/05 12:35:38;;;;;;;;;2.50;2.50;;;;;15.69;89.31;101202.78;6194632;23;45218;-82
2022/11/05 12:38:25;;;;;;;;;3.00;3.00;;;;;15.66;90.58;101202.78;6195045;23;45556;-82
2022/11/05 12:41:13;;;;;;;;;3.75;3.75;;;;;15.70;90.43;101191.19;6193735;23;45484;-82
2022/11/05 12:44:00;;;;;;;;;5.00;5.00;;;;;15.69;88.84;101185.81;6194035;23;45392;-82